createdAt,value
2022-09-27T00:00:30.647Z,12.09
2022-09-27T00:03:33.201Z,12.11
2022-09-27T00:06:40.586Z,12.15
2022-09-27T00:09:44.712Z,12.14
2022-09-27T00:12:48.148Z,12.08
2022-09-27T00:15:57.375Z,12.09
2022-09-27T00:19:01.060Z,12.08
2022-09-27T00:22:03.741Z,12.10
2022-09-27T00:25:08.210Z,12.13
2022-09-27T00:28:10.941Z,12.11
2022-09-27T00:31:21.258Z,12.10
2022-09-27T00:34:25.510Z,12.09
2022-09-27T00:37:28.044Z,12.04
2022-09-27T00:40:31.875Z,12.10
2022-09-27T00:43:46.882Z,12.11
2022-09-27T00:46:52.645Z,12.11
2022-09-27T00:49:58.339Z,12.10
2022-09-27T00:53:09.987Z,12.09
2022-09-27T00:56:18.597Z,12.08
2022-09-27T00:59:27.727Z,12.12
2022-09-27T01:02:30.915Z,12.12
2022-09-27T01:05:33.589Z,12.19
2022-09-27T01:08:36.418Z,12.15
2022-09-27T01:11:45.141Z,12.15
2022-09-27T01:15:06.398Z,12.09
2022-09-27T01:18:29.360Z,12.06
2022-09-27T01:21:52.376Z,12.02
2022-09-27T01:25:18.938Z,12.01
2022-09-27T01:28:29.976Z,12.03
2022-09-27T01:31:42.396Z,12.02
2022-09-27T01:34:50.045Z,11.97
2022-09-27T01:38:03.139Z,11.93
2022-09-27T01:41:13.987Z,11.89
2022-09-27T01:44:25.056Z,11.89
2022-09-27T01:47:39.380Z,11.86
2022-09-27T01:50:45.567Z,11.93
2022-09-27T01:53:51.733Z,11.94
2022-09-27T01:56:58.358Z,11.93
2022-09-27T02:00:04.865Z,11.85
2022-09-27T02:03:14.703Z,11.87
2022-09-27T02:06:21.224Z,11.87
2022-09-27T02:09:29.708Z,11.85
2022-09-27T02:12:41.160Z,11.89
2022-09-27T02:15:53.411Z,11.88
2022-09-27T02:19:10.027Z,11.82
2022-09-27T02:22:17.964Z,11.81
2022-09-27T02:25:25.359Z,11.73
2022-09-27T02:28:32.032Z,11.68
2022-09-27T02:31:34.706Z,11.62
2022-09-27T02:34:40.158Z,11.64
2022-09-27T02:37:42.789Z,11.58
2022-09-27T02:40:47.397Z,11.54
2022-09-27T02:43:53.195Z,11.59
2022-09-27T02:47:08.921Z,11.55
2022-09-27T02:50:33.129Z,11.57
2022-09-27T02:53:46.215Z,11.54
2022-09-27T02:56:59.181Z,11.52
2022-09-27T03:00:07.279Z,11.52
2022-09-27T03:03:16.034Z,11.64
2022-09-27T03:06:23.303Z,11.62
2022-09-27T03:09:30.320Z,11.66
2022-09-27T03:12:34.605Z,11.72
2022-09-27T03:15:37.053Z,11.73
2022-09-27T03:18:39.611Z,11.86
2022-09-27T03:21:43.382Z,12.03
2022-09-27T03:24:46.007Z,12.08
2022-09-27T03:27:49.355Z,12.15
2022-09-27T03:30:51.860Z,12.14
2022-09-27T03:33:54.447Z,12.16
2022-09-27T03:36:58.342Z,12.23
2022-09-27T03:40:00.807Z,12.22
2022-09-27T03:43:03.879Z,12.21
2022-09-27T03:46:06.677Z,12.17
2022-09-27T03:49:09.238Z,12.14
2022-09-27T03:52:13.133Z,12.13
2022-09-27T03:55:15.815Z,12.10
2022-09-27T03:58:18.256Z,12.11
2022-09-27T04:01:21.201Z,12.08
2022-09-27T04:04:23.758Z,12.08
2022-09-27T04:07:27.516Z,12.11
2022-09-27T04:10:29.991Z,12.08
2022-09-27T04:13:34.157Z,12.08
2022-09-27T04:16:36.715Z,12.05
2022-09-27T04:19:39.980Z,12.01
2022-09-27T04:22:45.488Z,12.02
2022-09-27T04:25:48.050Z,11.99
2022-09-27T04:28:54.765Z,12.05
2022-09-27T04:31:57.404Z,12.09
2022-09-27T04:35:17.786Z,11.99
2022-09-27T04:38:24.073Z,11.93
2022-09-27T04:41:28.343Z,11.84
2022-09-27T04:44:30.783Z,11.80
2022-09-27T04:47:34.144Z,11.70
2022-09-27T04:50:36.762Z,11.63
2022-09-27T04:53:40.787Z,11.57
2022-09-27T04:56:43.409Z,11.58
2022-09-27T04:59:45.874Z,11.51
2022-09-27T05:02:48.667Z,11.46
2022-09-27T05:05:51.363Z,11.43
2022-09-27T05:08:55.532Z,11.46
2022-09-27T05:11:58.043Z,11.46
2022-09-27T05:15:00.623Z,11.41
2022-09-27T05:18:03.111Z,11.39
2022-09-27T05:21:05.952Z,11.39
2022-09-27T05:24:09.731Z,11.37
2022-09-27T05:27:18.494Z,11.38
2022-09-27T05:30:21.013Z,11.38
2022-09-27T05:33:23.489Z,11.44
2022-09-27T05:36:25.960Z,11.54
2022-09-27T05:39:29.872Z,11.63
2022-09-27T05:42:32.460Z,11.62
2022-09-27T05:45:34.966Z,11.68
2022-09-27T05:48:38.338Z,11.75
2022-09-27T05:51:41.207Z,11.84
2022-09-27T05:54:45.485Z,11.90
2022-09-27T05:57:58.529Z,11.98
2022-09-27T06:01:01.258Z,12.01
2022-09-27T06:04:04.792Z,11.99
2022-09-27T06:07:07.241Z,12.03
2022-09-27T06:10:11.124Z,12.05
2022-09-27T06:13:16.212Z,12.03
2022-09-27T06:16:18.802Z,11.97
2022-09-27T06:19:21.399Z,11.95
2022-09-27T06:22:24.609Z,11.94
2022-09-27T06:25:28.651Z,12.02
2022-09-27T06:28:33.504Z,12.07
2022-09-27T06:31:36.164Z,12.10
2022-09-27T06:34:38.657Z,12.18
2022-09-27T06:37:41.159Z,12.24
2022-09-27T06:40:46.403Z,12.24
2022-09-27T06:43:49.488Z,12.35
2022-09-27T06:46:52.852Z,12.38
2022-09-27T06:49:58.329Z,12.43
2022-09-27T06:53:00.887Z,12.42
2022-09-27T06:56:07.703Z,12.47
2022-09-27T06:59:27.905Z,12.46
2022-09-27T07:02:30.413Z,12.52
2022-09-27T07:05:32.928Z,12.50
2022-09-27T07:08:35.927Z,12.58
2022-09-27T07:11:40.228Z,12.58
2022-09-27T07:14:42.814Z,12.61
2022-09-27T07:17:45.277Z,12.66
2022-09-27T07:20:47.739Z,12.72
2022-09-27T07:23:50.598Z,12.78
2022-09-27T07:26:54.401Z,12.79
2022-09-27T07:29:56.885Z,12.85
2022-09-27T07:33:00.254Z,12.94
2022-09-27T07:36:07.904Z,12.99
2022-09-27T07:39:10.580Z,13.02
2022-09-27T07:42:14.377Z,12.91
2022-09-27T07:45:17.241Z,12.98
2022-09-27T07:48:19.708Z,13.09
2022-09-27T07:51:22.816Z,13.15
2022-09-27T07:54:26.604Z,13.15
2022-09-27T07:57:30.404Z,13.03
2022-09-27T08:00:32.970Z,13.13
2022-09-27T08:03:36.179Z,13.14
2022-09-27T08:06:38.622Z,13.11
2022-09-27T08:09:41.094Z,13.02
2022-09-27T08:12:45.542Z,13.07
2022-09-27T08:15:48.639Z,13.08
2022-09-27T08:18:51.104Z,13.19
2022-09-27T08:21:58.749Z,13.25
2022-09-27T08:25:01.603Z,13.17
2022-09-27T08:28:05.950Z,13.21
2022-09-27T08:31:08.452Z,13.16
2022-09-27T08:34:10.925Z,13.20
2022-09-27T08:37:13.371Z,13.25
2022-09-27T08:40:17.714Z,13.29
2022-09-27T08:43:36.644Z,13.30
2022-09-27T08:46:48.888Z,13.20
2022-09-27T08:49:55.739Z,13.00
2022-09-27T08:53:01.251Z,12.96
2022-09-27T08:56:04.577Z,13.00
2022-09-27T08:59:15.407Z,13.05
2022-09-27T09:02:19.998Z,12.99
2022-09-27T09:05:31.232Z,12.98
2022-09-27T09:08:44.386Z,13.04
2022-09-27T09:12:18.769Z,13.02
2022-09-27T09:15:32.828Z,12.95
2022-09-27T09:18:45.743Z,12.81
2022-09-27T09:22:00.643Z,12.72
2022-09-27T09:25:21.097Z,12.85
2022-09-27T09:28:36.855Z,12.83
2022-09-27T09:31:44.171Z,12.90
2022-09-27T09:34:50.216Z,12.82
2022-09-27T09:37:56.930Z,12.87
2022-09-27T09:41:04.459Z,12.93
2022-09-27T09:44:17.200Z,12.79
2022-09-27T09:47:27.893Z,12.79
2022-09-27T09:50:36.193Z,12.81
2022-09-27T09:53:47.990Z,12.76
2022-09-27T09:56:57.160Z,12.77
2022-09-27T10:00:03.307Z,12.75
2022-09-27T10:03:07.292Z,12.74
2022-09-27T10:06:11.668Z,12.77
2022-09-27T10:09:16.729Z,12.66
2022-09-27T10:12:19.458Z,12.78
2022-09-27T10:15:23.929Z,12.89
2022-09-27T10:18:28.542Z,13.11
2022-09-27T10:21:31.208Z,13.28
2022-09-27T10:24:55.648Z,13.52
2022-09-27T10:27:58.169Z,13.48
2022-09-27T10:31:03.196Z,13.57
2022-09-27T10:34:07.043Z,13.47
2022-09-27T10:37:18.388Z,13.46
2022-09-27T10:40:28.587Z,13.40
2022-09-27T10:43:34.576Z,13.45
2022-09-27T10:46:37.141Z,13.51
2022-09-27T10:49:42.981Z,13.79
2022-09-27T10:52:45.714Z,13.95
2022-09-27T10:55:50.999Z,14.20
2022-09-27T10:58:53.803Z,14.34
2022-09-27T11:01:56.356Z,14.44
2022-09-27T11:05:15.446Z,14.44
2022-09-27T11:08:24.356Z,14.51
2022-09-27T11:11:28.617Z,14.44
2022-09-27T11:14:32.990Z,14.33
2022-09-27T11:17:48.996Z,14.35
2022-09-27T11:21:02.992Z,14.41
2022-09-27T11:24:22.416Z,14.54
2022-09-27T11:27:34.036Z,14.48
2022-09-27T11:30:48.936Z,14.37
2022-09-27T11:34:12.092Z,14.57
2022-09-27T11:37:28.432Z,14.59
2022-09-27T11:40:41.071Z,14.66
2022-09-27T11:43:56.858Z,14.70
2022-09-27T11:47:12.082Z,14.85
2022-09-27T11:50:57.814Z,14.99
2022-09-27T11:54:14.627Z,14.71
2022-09-27T11:57:26.365Z,14.60
2022-09-27T12:00:44.162Z,14.50
2022-09-27T12:04:13.625Z,14.79
2022-09-27T12:07:24.434Z,14.87
2022-09-27T12:10:28.647Z,14.99
2022-09-27T12:13:37.408Z,15.02
2022-09-27T12:16:42.865Z,15.33
2022-09-27T12:19:50.417Z,15.32
2022-09-27T12:22:59.656Z,15.27
2022-09-27T12:26:10.300Z,15.27
2022-09-27T12:29:16.563Z,15.08
2022-09-27T12:32:24.320Z,14.95
2022-09-27T12:35:30.446Z,14.81
2022-09-27T12:38:40.749Z,14.72
2022-09-27T12:41:49.971Z,14.76
2022-09-27T12:44:53.414Z,14.73
2022-09-27T12:48:06.450Z,14.71
2022-09-27T12:51:11.141Z,14.66
2022-09-27T12:54:38.281Z,14.50
2022-09-27T12:57:51.545Z,14.36
2022-09-27T13:00:59.341Z,13.96
2022-09-27T13:04:17.929Z,13.31
2022-09-27T13:07:34.928Z,12.70
2022-09-27T13:10:49.122Z,12.43
2022-09-27T13:13:56.227Z,12.32
2022-09-27T13:16:58.860Z,12.41
2022-09-27T13:20:42.523Z,12.51
2022-09-27T13:23:53.956Z,12.37
2022-09-27T13:26:56.510Z,12.24
2022-09-27T13:30:47.018Z,12.21
2022-09-27T13:33:52.609Z,12.07
2022-09-27T13:36:55.102Z,12.03
2022-09-27T13:40:12.620Z,11.97
2022-09-27T13:43:51.247Z,11.95
2022-09-27T13:46:59.489Z,11.98
2022-09-27T13:50:15.697Z,11.99
2022-09-27T13:53:25.078Z,12.02
2022-09-27T13:56:49.903Z,12.02
2022-09-27T13:59:58.084Z,12.13
2022-09-27T14:03:03.471Z,12.21
2022-09-27T14:06:10.015Z,12.24
2022-09-27T14:09:20.207Z,12.29
2022-09-27T14:12:26.219Z,12.28
2022-09-27T14:15:31.214Z,12.27
2022-09-27T14:18:35.784Z,12.37
2022-09-27T14:21:41.601Z,12.41
2022-09-27T14:24:49.586Z,12.44
2022-09-27T14:27:52.424Z,12.57
2022-09-27T14:31:08.836Z,12.74
2022-09-27T14:34:13.205Z,12.83
2022-09-27T14:37:27.566Z,12.93
2022-09-27T14:40:31.793Z,12.96
2022-09-27T14:43:36.203Z,13.05
2022-09-27T14:46:38.738Z,13.04
2022-09-27T14:49:48.307Z,13.15
2022-09-27T14:52:55.512Z,13.18
2022-09-27T14:55:59.285Z,13.17
2022-09-27T14:59:06.518Z,13.12
2022-09-27T15:02:20.131Z,13.05
2022-09-27T15:05:25.260Z,12.93
2022-09-27T15:08:33.469Z,12.88
2022-09-27T15:11:36.304Z,12.75
2022-09-27T15:14:41.355Z,12.69
2022-09-27T15:17:45.384Z,12.70
2022-09-27T15:20:54.676Z,12.77
2022-09-27T15:23:58.828Z,12.83
2022-09-27T15:27:01.384Z,12.95
2022-09-27T15:30:05.606Z,13.16
2022-09-27T15:33:19.870Z,13.25
2022-09-27T15:36:52.205Z,13.22
2022-09-27T15:39:56.002Z,13.30
2022-09-27T15:43:00.206Z,13.23
2022-09-27T15:46:05.125Z,13.17
2022-09-27T15:49:38.092Z,13.15
2022-09-27T15:52:43.296Z,13.12
2022-09-27T15:55:47.108Z,13.08
2022-09-27T15:58:49.553Z,12.99
2022-09-27T16:01:56.957Z,13.00
2022-09-27T16:04:59.477Z,12.91
2022-09-27T16:08:02.459Z,12.79
2022-09-27T16:11:06.514Z,12.73
2022-09-27T16:14:08.984Z,12.66
2022-09-27T16:17:11.891Z,12.58
2022-09-27T16:20:19.506Z,12.48
2022-09-27T16:23:21.977Z,12.42
2022-09-27T16:26:25.756Z,12.37
2022-09-27T16:29:28.364Z,12.30
2022-09-27T16:32:31.067Z,12.25
2022-09-27T16:35:33.537Z,12.18
2022-09-27T16:38:35.991Z,12.13
2022-09-27T16:41:42.238Z,12.12
2022-09-27T16:44:44.692Z,12.08
2022-09-27T16:47:47.394Z,12.05
2022-09-27T16:51:07.514Z,12.05
2022-09-27T16:54:10.421Z,12.05
2022-09-27T16:57:14.336Z,11.99
2022-09-27T17:00:17.558Z,11.88
2022-09-27T17:03:20.054Z,11.77
2022-09-27T17:06:23.211Z,11.68
2022-09-27T17:09:25.903Z,11.50
2022-09-27T17:12:29.701Z,11.45
2022-09-27T17:15:32.163Z,11.37
2022-09-27T17:18:34.675Z,11.30
2022-09-27T17:21:38.275Z,11.23
2022-09-27T17:24:40.924Z,11.21
2022-09-27T17:27:44.693Z,11.17
2022-09-27T17:30:47.270Z,11.12
2022-09-27T17:33:56.851Z,11.02
2022-09-27T17:37:00.802Z,10.92
2022-09-27T17:40:04.031Z,10.86
2022-09-27T17:43:07.892Z,10.77
2022-09-27T17:46:11.334Z,10.73
2022-09-27T17:49:33.294Z,10.66
2022-09-27T17:52:35.876Z,10.70
2022-09-27T17:55:38.390Z,10.76
2022-09-27T17:58:46.557Z,10.85
2022-09-27T18:01:49.634Z,10.87
2022-09-27T18:04:52.185Z,10.87
2022-09-27T18:07:54.646Z,10.90
2022-09-27T18:10:57.150Z,10.89
2022-09-27T18:14:01.599Z,10.92
2022-09-27T18:17:04.058Z,10.87
2022-09-27T18:20:08.941Z,10.88
2022-09-27T18:23:11.384Z,10.85
2022-09-27T18:26:13.858Z,10.82
2022-09-27T18:29:19.186Z,10.80
2022-09-27T18:32:21.674Z,10.68
2022-09-27T18:35:24.812Z,10.63
2022-09-27T18:38:27.264Z,10.64
2022-09-27T18:41:31.866Z,10.61
2022-09-27T18:44:35.718Z,10.58
2022-09-27T18:47:38.270Z,10.57
2022-09-27T18:50:40.844Z,10.49
2022-09-27T18:53:45.402Z,10.49
2022-09-27T18:56:49.728Z,10.48
2022-09-27T18:59:54.431Z,10.44
2022-09-27T19:02:56.916Z,10.40
2022-09-27T19:06:01.698Z,10.38
2022-09-27T19:09:05.210Z,10.29
2022-09-27T19:12:07.685Z,10.21
2022-09-27T19:15:11.988Z,10.15
2022-09-27T19:18:14.464Z,10.06
2022-09-27T19:21:18.758Z,10.01
2022-09-27T19:24:21.259Z,9.96
2022-09-27T19:27:23.999Z,9.96
2022-09-27T19:30:27.778Z,9.98
2022-09-27T19:33:30.211Z,9.94
2022-09-27T19:36:32.677Z,9.91
2022-09-27T19:39:35.259Z,9.90
2022-09-27T19:42:37.728Z,9.86
2022-09-27T19:45:41.917Z,9.84
2022-09-27T19:48:45.383Z,9.80
2022-09-27T19:51:47.826Z,9.71
2022-09-27T19:54:50.259Z,9.71
2022-09-27T19:57:52.698Z,9.70
2022-09-27T20:01:01.190Z,9.77
2022-09-27T20:04:03.959Z,9.74
2022-09-27T20:07:06.416Z,9.82
2022-09-27T20:10:09.856Z,9.86
2022-09-27T20:13:12.313Z,9.90
2022-09-27T20:16:18.366Z,9.97
2022-09-27T20:19:20.895Z,9.94
2022-09-27T20:22:23.410Z,9.93
2022-09-27T20:25:26.428Z,9.90
2022-09-27T20:28:28.990Z,9.91
2022-09-27T20:31:36.847Z,9.95
2022-09-27T20:34:39.478Z,9.98
2022-09-27T20:37:41.907Z,9.97
2022-09-27T20:40:44.465Z,10.02
2022-09-27T20:43:47.523Z,10.01
2022-09-27T20:46:51.419Z,10.11
2022-09-27T20:49:53.961Z,10.09
2022-09-27T20:52:56.435Z,10.06
2022-09-27T20:56:02.477Z,10.10
2022-09-27T20:59:12.725Z,10.14
2022-09-27T21:02:18.494Z,10.13
2022-09-27T21:05:21.022Z,10.13
2022-09-27T21:08:24.406Z,10.14
2022-09-27T21:11:27.434Z,10.13
2022-09-27T21:14:29.882Z,10.09
2022-09-27T21:17:33.632Z,10.07
2022-09-27T21:20:36.059Z,10.06
2022-09-27T21:23:44.280Z,10.05
2022-09-27T21:26:47.546Z,10.05
2022-09-27T21:29:49.977Z,10.00
2022-09-27T21:32:56.069Z,10.02
2022-09-27T21:35:58.902Z,9.99
2022-09-27T21:39:02.004Z,9.99
2022-09-27T21:42:04.558Z,9.89
2022-09-27T21:45:07.859Z,9.85
2022-09-27T21:48:11.622Z,9.80
2022-09-27T21:51:15.855Z,9.82
2022-09-27T21:54:18.322Z,9.79
2022-09-27T21:57:20.766Z,9.74
2022-09-27T22:00:23.436Z,9.78
2022-09-27T22:03:27.312Z,9.79
2022-09-27T22:06:31.978Z,9.82
2022-09-27T22:09:34.435Z,9.79
2022-09-27T22:12:36.867Z,9.81
2022-09-27T22:15:39.769Z,9.76
2022-09-27T22:18:46.094Z,9.74
2022-09-27T22:21:48.681Z,9.73
2022-09-27T22:24:51.147Z,9.74
2022-09-27T22:27:53.591Z,9.71
2022-09-27T22:30:56.114Z,9.68
2022-09-27T22:34:01.676Z,9.65
2022-09-27T22:37:04.168Z,9.64
2022-09-27T22:40:10.293Z,9.63
2022-09-27T22:43:13.345Z,9.61
2022-09-27T22:46:16.054Z,9.56
2022-09-27T22:49:19.926Z,9.56
2022-09-27T22:52:22.540Z,9.57
2022-09-27T22:55:25.016Z,9.51
2022-09-27T22:58:28.074Z,9.51
2022-09-27T23:01:31.530Z,9.46
2022-09-27T23:04:35.359Z,9.45
2022-09-27T23:07:37.804Z,9.43
2022-09-27T23:10:40.366Z,9.40
2022-09-27T23:13:44.306Z,9.43
2022-09-27T23:16:46.825Z,9.40
2022-09-27T23:19:50.620Z,9.42
2022-09-27T23:22:53.811Z,9.36
2022-09-27T23:26:01.077Z,9.38
2022-09-27T23:29:04.090Z,9.33
2022-09-27T23:32:07.801Z,9.34
2022-09-27T23:35:12.323Z,9.31
2022-09-27T23:38:14.990Z,9.28
2022-09-27T23:41:18.933Z,9.28
2022-09-27T23:44:22.718Z,9.28
2022-09-27T23:47:25.236Z,9.26
2022-09-27T23:50:29.131Z,9.30
2022-09-27T23:53:31.912Z,9.26
2022-09-27T23:56:34.395Z,9.21
2022-09-27T23:59:38.399Z,9.24
